EGMD

Lydd Airport

Lydd, Ashford, United Kingdom
TAF EGMD 212301Z 2200/2209 20015KT 9999 FEW025 TEMPO 2200/2207 7000 -RADZ BKN010 PROB30 TEMPO 2200/2206 4000 RA BKN006 BECMG 2203/2206 28010KT
Issued Valid From Valid To
Jan-21 @ 23:01 UTC
(2 hours ago)
Jan-22 @ 00:00 UTC
(41 minutes ago)
Jan-22 @ 09:00 UTC
(in 8 hours)
Jan-22 @ 00:00 to Jan-22 @ 03:00
TAF EGMD 212301Z 2200/2209 20015KT 9999 FEW025
Wind Visibility Clouds
200° at 15 knots 10,000+ meters
  • Few at 2,500' AGL
Temporary  (Probability 30%) Jan-22 @ 00:00 to Jan-22 @ 06:00
PROB30 TEMPO 2200/2206 4000 RA BKN006
Visibility Clouds Conditions
4,007 meters
  • Broken at 600' AGL
  • Rain
Temporary Jan-22 @ 00:00 to Jan-22 @ 07:00
TEMPO 2200/2207 7000 -RADZ BKN010
Visibility Clouds Conditions
7,001 meters
  • Broken at 1,000' AGL
  • Light Rain
  • Light Drizzle
Becoming Jan-22 @ 03:00 to Jan-22 @ 09:00
BECMG 2203/2206 28010KT
Wind Visibility Clouds
280° at 10 knots 10,000+ meters
  • Few at 2,500' AGL
TAF EGMD 212301Z 2200/2209 20015KT 9999 FEW025 TEMPO 2200/2207 7000 -RADZ BKN010 PROB30 TEMPO 2200/2206 4000 RA BKN006 BECMG 2203/2206 28010KT
Issued Jan-21 @ 23:01 UTC
(2 hours ago)
Valid From Jan-22 @ 00:00 UTC
(41 minutes ago)
Valid To Jan-22 @ 09:00 UTC
(in 8 hours)
Jan-22 @ 00:00 - Jan-22 @ 03:00
Wind Visibility
200° at 15 knots 10,000+ meters
Clouds
  • Few at 2,500' AGL
Probability 30% Temporary Jan-22 @ 00:00 - Jan-22 @ 06:00
Clouds
  • Broken at 600' AGL
Conditions
  • Rain
Temporary Jan-22 @ 00:00 - Jan-22 @ 07:00
Clouds
  • Broken at 1,000' AGL
Conditions
  • Light Rain
  • Light Drizzle
Becoming Jan-22 @ 03:00 - Jan-22 @ 09:00
Wind Visibility
280° at 10 knots 10,000+ meters
Clouds
  • Few at 2,500' AGL